Terminal Aerodrome Forecast
Issued by NWS Portland, OR

Home | Current Version | Previous Version | Text Only | Print | Product List | Glossary On
Versions: 1 2 3 4 5 6 7 8 9 10 11 12 13 14 15 16 17 18 19 20 21 22 23 24 25 26 27 28 29 30
000
FTUS46 KPQR 220533
TAFHIO
TAF
KHIO 220533Z 2206/2306 15008KT P6SM -RA FEW045 OVC070
     FM221100 12012KT P6SM -RA BKN045 OVC070
     FM221700 16012G22KT 6SM -RA SCT035 OVC045
     FM222100 17010KT 5SM RA BKN028 OVC035=

USA.gov is the U.S. government's official web portal to all federal, state and local government web resources and services.